sensor_id;sensor_type;location;lat;lon;timestamp;P1;durP1;ratioP1;P2;durP2;ratioP2
19675;SDS011;39539;52.202;9.876;2022-08-07T00:01:39;2.72;;;2.53;;
19675;SDS011;39539;52.202;9.876;2022-08-07T00:04:05;2.25;;;2.10;;
19675;SDS011;39539;52.202;9.876;2022-08-07T00:06:31;2.63;;;2.42;;
19675;SDS011;39539;52.202;9.876;2022-08-07T00:08:57;2.78;;;2.58;;
19675;SDS011;39539;52.202;9.876;2022-08-07T00:11:22;2.75;;;2.60;;
19675;SDS011;39539;52.202;9.876;2022-08-07T00:13:47;2.75;;;2.53;;
19675;SDS011;39539;52.202;9.876;2022-08-07T00:16:13;2.58;;;2.38;;
19675;SDS011;39539;52.202;9.876;2022-08-07T00:18:39;2.83;;;2.63;;
19675;SDS011;39539;52.202;9.876;2022-08-07T00:21:05;2.92;;;2.65;;
19675;SDS011;39539;52.202;9.876;2022-08-07T00:23:32;2.50;;;2.30;;
19675;SDS011;39539;52.202;9.876;2022-08-07T00:25:59;2.15;;;2.05;;
19675;SDS011;39539;52.202;9.876;2022-08-07T00:28:26;2.55;;;2.38;;
19675;SDS011;39539;52.202;9.876;2022-08-07T00:30:52;2.47;;;2.10;;
19675;SDS011;39539;52.202;9.876;2022-08-07T00:33:18;2.85;;;2.65;;
19675;SDS011;39539;52.202;9.876;2022-08-07T00:35:43;3.13;;;2.92;;
19675;SDS011;39539;52.202;9.876;2022-08-07T00:38:08;4.05;;;2.53;;
19675;SDS011;39539;52.202;9.876;2022-08-07T00:40:34;3.05;;;2.85;;
19675;SDS011;39539;52.202;9.876;2022-08-07T00:43:00;3.38;;;2.50;;
19675;SDS011;39539;52.202;9.876;2022-08-07T00:45:25;2.40;;;2.30;;
19675;SDS011;39539;52.202;9.876;2022-08-07T00:47:51;2.80;;;2.60;;
19675;SDS011;39539;52.202;9.876;2022-08-07T00:50:16;2.60;;;2.20;;
19675;SDS011;39539;52.202;9.876;2022-08-07T00:52:42;2.63;;;2.42;;
19675;SDS011;39539;52.202;9.876;2022-08-07T00:55:08;2.53;;;2.22;;
19675;SDS011;39539;52.202;9.876;2022-08-07T00:57:33;2.40;;;2.20;;
19675;SDS011;39539;52.202;9.876;2022-08-07T01:00:00;2.30;;;2.20;;
19675;SDS011;39539;52.202;9.876;2022-08-07T01:02:29;3.20;;;3.00;;
19675;SDS011;39539;52.202;9.876;2022-08-07T01:04:56;3.35;;;2.80;;
19675;SDS011;39539;52.202;9.876;2022-08-07T01:07:22;2.67;;;2.47;;
19675;SDS011;39539;52.202;9.876;2022-08-07T01:09:47;3.20;;;2.90;;
19675;SDS011;39539;52.202;9.876;2022-08-07T01:12:13;3.00;;;2.80;;
19675;SDS011;39539;52.202;9.876;2022-08-07T01:14:40;2.90;;;2.60;;
19675;SDS011;39539;52.202;9.876;2022-08-07T01:17:06;3.33;;;3.13;;
19675;SDS011;39539;52.202;9.876;2022-08-07T01:19:31;3.08;;;2.88;;
19675;SDS011;39539;52.202;9.876;2022-08-07T01:21:58;3.20;;;3.00;;
19675;SDS011;39539;52.202;9.876;2022-08-07T01:24:24;3.22;;;2.92;;
19675;SDS011;39539;52.202;9.876;2022-08-07T01:26:51;3.45;;;3.25;;
19675;SDS011;39539;52.202;9.876;2022-08-07T01:29:18;3.58;;;3.38;;
19675;SDS011;39539;52.202;9.876;2022-08-07T01:31:47;3.72;;;3.53;;
19675;SDS011;39539;52.202;9.876;2022-08-07T01:34:13;4.05;;;3.10;;
19675;SDS011;39539;52.202;9.876;2022-08-07T01:36:39;3.67;;;3.38;;
19675;SDS011;39539;52.202;9.876;2022-08-07T01:39:05;3.78;;;3.47;;
19675;SDS011;39539;52.202;9.876;2022-08-07T01:41:30;3.40;;;3.20;;
19675;SDS011;39539;52.202;9.876;2022-08-07T01:43:57;3.85;;;3.55;;
19675;SDS011;39539;52.202;9.876;2022-08-07T01:46:22;4.00;;;3.60;;
19675;SDS011;39539;52.202;9.876;2022-08-07T01:48:49;3.50;;;3.30;;
19675;SDS011;39539;52.202;9.876;2022-08-07T01:51:19;3.05;;;2.85;;
19675;SDS011;39539;52.202;9.876;2022-08-07T01:53:48;2.67;;;2.47;;
19675;SDS011;39539;52.202;9.876;2022-08-07T01:56:16;2.67;;;2.47;;
19675;SDS011;39539;52.202;9.876;2022-08-07T01:59:05;2.88;;;2.67;;
19675;SDS011;39539;52.202;9.876;2022-08-07T02:01:43;3.65;;;2.78;;
19675;SDS011;39539;52.202;9.876;2022-08-07T02:06:39;3.00;;;2.85;;
19675;SDS011;39539;52.202;9.876;2022-08-07T02:09:08;3.30;;;3.10;;
19675;SDS011;39539;52.202;9.876;2022-08-07T02:11:37;3.33;;;3.08;;
19675;SDS011;39539;52.202;9.876;2022-08-07T02:14:06;3.13;;;2.92;;
19675;SDS011;39539;52.202;9.876;2022-08-07T02:16:33;3.30;;;3.10;;
19675;SDS011;39539;52.202;9.876;2022-08-07T02:19:02;3.35;;;3.15;;
19675;SDS011;39539;52.202;9.876;2022-08-07T02:21:30;3.70;;;3.40;;
19675;SDS011;39539;52.202;9.876;2022-08-07T02:23:56;4.63;;;4.25;;
19675;SDS011;39539;52.202;9.876;2022-08-07T02:26:23;4.07;;;3.80;;
19675;SDS011;39539;52.202;9.876;2022-08-07T02:28:50;4.60;;;4.20;;
19675;SDS011;39539;52.202;9.876;2022-08-07T02:31:17;4.03;;;3.75;;
19675;SDS011;39539;52.202;9.876;2022-08-07T02:33:44;4.53;;;4.22;;
19675;SDS011;39539;52.202;9.876;2022-08-07T02:36:11;4.72;;;4.38;;
19675;SDS011;39539;52.202;9.876;2022-08-07T02:38:39;4.82;;;4.47;;
19675;SDS011;39539;52.202;9.876;2022-08-07T02:41:05;4.70;;;4.40;;
19675;SDS011;39539;52.202;9.876;2022-08-07T02:43:31;4.45;;;4.15;;
19675;SDS011;39539;52.202;9.876;2022-08-07T02:46:00;4.88;;;4.57;;
19675;SDS011;39539;52.202;9.876;2022-08-07T02:48:29;4.85;;;4.45;;
19675;SDS011;39539;52.202;9.876;2022-08-07T02:50:55;4.75;;;4.45;;
19675;SDS011;39539;52.202;9.876;2022-08-07T02:53:27;5.22;;;4.82;;
19675;SDS011;39539;52.202;9.876;2022-08-07T02:55:58;4.43;;;4.03;;
19675;SDS011;39539;52.202;9.876;2022-08-07T02:58:27;5.25;;;4.85;;
19675;SDS011;39539;52.202;9.876;2022-08-07T03:00:56;4.60;;;4.30;;
19675;SDS011;39539;52.202;9.876;2022-08-07T03:03:24;4.80;;;4.40;;
19675;SDS011;39539;52.202;9.876;2022-08-07T03:05:52;4.35;;;3.95;;
19675;SDS011;39539;52.202;9.876;2022-08-07T03:08:20;4.70;;;4.30;;
19675;SDS011;39539;52.202;9.876;2022-08-07T03:10:46;4.35;;;4.13;;
19675;SDS011;39539;52.202;9.876;2022-08-07T03:13:15;3.97;;;3.67;;
19675;SDS011;39539;52.202;9.876;2022-08-07T03:15:41;4.18;;;3.80;;
19675;SDS011;39539;52.202;9.876;2022-08-07T03:18:08;4.28;;;4.03;;
19675;SDS011;39539;52.202;9.876;2022-08-07T03:20:33;4.97;;;4.57;;
19675;SDS011;39539;52.202;9.876;2022-08-07T03:23:00;5.30;;;4.82;;
19675;SDS011;39539;52.202;9.876;2022-08-07T03:25:27;5.22;;;4.82;;
19675;SDS011;39539;52.202;9.876;2022-08-07T03:27:53;5.55;;;5.15;;
19675;SDS011;39539;52.202;9.876;2022-08-07T03:30:21;5.47;;;5.07;;
19675;SDS011;39539;52.202;9.876;2022-08-07T03:32:47;5.75;;;5.35;;
19675;SDS011;39539;52.202;9.876;2022-08-07T03:35:14;5.78;;;5.28;;
19675;SDS011;39539;52.202;9.876;2022-08-07T03:37:42;5.60;;;5.20;;
19675;SDS011;39539;52.202;9.876;2022-08-07T03:40:09;8.45;;;4.75;;
19675;SDS011;39539;52.202;9.876;2022-08-07T03:42:35;5.75;;;5.28;;
19675;SDS011;39539;52.202;9.876;2022-08-07T03:45:02;5.93;;;5.43;;
19675;SDS011;39539;52.202;9.876;2022-08-07T03:47:28;5.55;;;5.05;;
19675;SDS011;39539;52.202;9.876;2022-08-07T03:49:55;5.18;;;4.80;;
19675;SDS011;39539;52.202;9.876;2022-08-07T03:52:22;5.93;;;5.43;;
19675;SDS011;39539;52.202;9.876;2022-08-07T03:54:51;5.35;;;5.00;;
19675;SDS011;39539;52.202;9.876;2022-08-07T03:57:17;5.50;;;5.10;;
19675;SDS011;39539;52.202;9.876;2022-08-07T03:59:43;5.75;;;5.35;;
19675;SDS011;39539;52.202;9.876;2022-08-07T04:02:10;5.30;;;4.90;;
19675;SDS011;39539;52.202;9.876;2022-08-07T04:04:38;5.85;;;5.35;;
19675;SDS011;39539;52.202;9.876;2022-08-07T04:07:06;5.20;;;4.90;;
19675;SDS011;39539;52.202;9.876;2022-08-07T04:09:32;5.18;;;4.78;;
19675;SDS011;39539;52.202;9.876;2022-08-07T04:11:59;4.90;;;4.50;;
19675;SDS011;39539;52.202;9.876;2022-08-07T04:14:25;5.00;;;4.70;;
19675;SDS011;39539;52.202;9.876;2022-08-07T04:16:51;5.82;;;5.22;;
19675;SDS011;39539;52.202;9.876;2022-08-07T04:19:17;5.45;;;5.05;;
19675;SDS011;39539;52.202;9.876;2022-08-07T04:21:42;4.88;;;4.47;;
19675;SDS011;39539;52.202;9.876;2022-08-07T04:24:08;5.32;;;4.93;;
19675;SDS011;39539;52.202;9.876;2022-08-07T04:26:39;5.18;;;4.80;;
19675;SDS011;39539;52.202;9.876;2022-08-07T04:29:05;5.20;;;4.80;;
19675;SDS011;39539;52.202;9.876;2022-08-07T04:31:34;6.30;;;5.70;;
19675;SDS011;39539;52.202;9.876;2022-08-07T04:34:02;5.90;;;5.50;;
19675;SDS011;39539;52.202;9.876;2022-08-07T04:36:27;6.47;;;5.88;;
19675;SDS011;39539;52.202;9.876;2022-08-07T04:38:53;6.32;;;5.82;;
19675;SDS011;39539;52.202;9.876;2022-08-07T04:41:18;6.28;;;5.78;;
19675;SDS011;39539;52.202;9.876;2022-08-07T04:43:44;6.90;;;6.32;;
19675;SDS011;39539;52.202;9.876;2022-08-07T04:46:12;6.40;;;5.90;;
19675;SDS011;39539;52.202;9.876;2022-08-07T04:48:56;6.63;;;6.10;;
19675;SDS011;39539;52.202;9.876;2022-08-07T04:51:45;6.18;;;5.68;;
19675;SDS011;39539;52.202;9.876;2022-08-07T04:54:16;6.50;;;6.10;;
19675;SDS011;39539;52.202;9.876;2022-08-07T04:56:49;6.97;;;6.47;;
19675;SDS011;39539;52.202;9.876;2022-08-07T05:02:11;7.00;;;6.40;;
19675;SDS011;39539;52.202;9.876;2022-08-07T05:04:50;6.47;;;5.97;;
19675;SDS011;39539;52.202;9.876;2022-08-07T05:07:35;6.15;;;5.75;;
19675;SDS011;39539;52.202;9.876;2022-08-07T05:10:10;6.75;;;6.10;;
19675;SDS011;39539;52.202;9.876;2022-08-07T05:12:46;6.50;;;6.07;;
19675;SDS011;39539;52.202;9.876;2022-08-07T05:15:18;7.00;;;6.50;;
19675;SDS011;39539;52.202;9.876;2022-08-07T05:17:48;7.32;;;6.75;;
19675;SDS011;39539;52.202;9.876;2022-08-07T05:20:20;7.03;;;6.53;;
19675;SDS011;39539;52.202;9.876;2022-08-07T05:22:51;6.45;;;5.90;;
19675;SDS011;39539;52.202;9.876;2022-08-07T05:25:20;6.75;;;6.18;;
19675;SDS011;39539;52.202;9.876;2022-08-07T05:27:47;7.30;;;6.60;;
19675;SDS011;39539;52.202;9.876;2022-08-07T05:30:14;7.07;;;6.55;;
19675;SDS011;39539;52.202;9.876;2022-08-07T05:32:41;6.75;;;6.20;;
19675;SDS011;39539;52.202;9.876;2022-08-07T05:35:11;6.30;;;5.90;;
19675;SDS011;39539;52.202;9.876;2022-08-07T05:37:37;7.18;;;6.57;;
19675;SDS011;39539;52.202;9.876;2022-08-07T05:40:04;7.20;;;6.50;;
19675;SDS011;39539;52.202;9.876;2022-08-07T05:42:30;6.60;;;6.20;;
19675;SDS011;39539;52.202;9.876;2022-08-07T05:44:55;5.97;;;5.47;;
19675;SDS011;39539;52.202;9.876;2022-08-07T05:47:22;6.43;;;5.93;;
19675;SDS011;39539;52.202;9.876;2022-08-07T05:49:48;6.45;;;5.95;;
19675;SDS011;39539;52.202;9.876;2022-08-07T05:52:15;6.07;;;5.60;;
19675;SDS011;39539;52.202;9.876;2022-08-07T05:54:44;6.60;;;6.13;;
19675;SDS011;39539;52.202;9.876;2022-08-07T05:57:09;6.85;;;6.28;;
19675;SDS011;39539;52.202;9.876;2022-08-07T05:59:36;6.57;;;5.97;;
19675;SDS011;39539;52.202;9.876;2022-08-07T06:02:04;6.18;;;5.65;;
19675;SDS011;39539;52.202;9.876;2022-08-07T06:04:33;5.57;;;5.10;;
19675;SDS011;39539;52.202;9.876;2022-08-07T06:07:03;5.43;;;4.88;;
19675;SDS011;39539;52.202;9.876;2022-08-07T06:09:33;4.68;;;4.28;;
19675;SDS011;39539;52.202;9.876;2022-08-07T06:11:59;4.57;;;4.22;;
19675;SDS011;39539;52.202;9.876;2022-08-07T06:14:24;5.10;;;4.70;;
19675;SDS011;39539;52.202;9.876;2022-08-07T06:16:50;4.60;;;4.15;;
19675;SDS011;39539;52.202;9.876;2022-08-07T06:19:16;3.90;;;3.60;;
19675;SDS011;39539;52.202;9.876;2022-08-07T06:21:43;4.38;;;3.97;;
19675;SDS011;39539;52.202;9.876;2022-08-07T06:24:10;4.10;;;3.72;;
19675;SDS011;39539;52.202;9.876;2022-08-07T06:26:38;4.25;;;3.95;;
19675;SDS011;39539;52.202;9.876;2022-08-07T06:29:04;3.85;;;3.47;;
19675;SDS011;39539;52.202;9.876;2022-08-07T06:31:29;3.40;;;3.10;;
19675;SDS011;39539;52.202;9.876;2022-08-07T06:33:55;4.55;;;3.63;;
19675;SDS011;39539;52.202;9.876;2022-08-07T06:36:20;3.65;;;3.35;;
19675;SDS011;39539;52.202;9.876;2022-08-07T06:38:46;3.38;;;3.15;;
19675;SDS011;39539;52.202;9.876;2022-08-07T06:41:14;3.10;;;2.90;;
19675;SDS011;39539;52.202;9.876;2022-08-07T06:43:43;3.70;;;3.40;;
19675;SDS011;39539;52.202;9.876;2022-08-07T06:46:11;3.25;;;3.05;;
19675;SDS011;39539;52.202;9.876;2022-08-07T06:48:36;3.47;;;3.17;;
19675;SDS011;39539;52.202;9.876;2022-08-07T06:51:03;3.22;;;2.85;;
19675;SDS011;39539;52.202;9.876;2022-08-07T06:53:33;3.30;;;3.05;;
19675;SDS011;39539;52.202;9.876;2022-08-07T06:56:04;3.60;;;3.22;;
19675;SDS011;39539;52.202;9.876;2022-08-07T06:58:31;3.55;;;2.92;;
19675;SDS011;39539;52.202;9.876;2022-08-07T07:00:59;4.05;;;3.22;;
19675;SDS011;39539;52.202;9.876;2022-08-07T07:03:26;3.30;;;3.00;;
19675;SDS011;39539;52.202;9.876;2022-08-07T07:05:52;3.85;;;3.55;;
19675;SDS011;39539;52.202;9.876;2022-08-07T07:08:22;3.50;;;3.20;;
19675;SDS011;39539;52.202;9.876;2022-08-07T07:10:49;3.00;;;2.78;;
19675;SDS011;39539;52.202;9.876;2022-08-07T07:13:20;3.75;;;3.30;;
19675;SDS011;39539;52.202;9.876;2022-08-07T07:15:52;3.22;;;3.03;;
19675;SDS011;39539;52.202;9.876;2022-08-07T07:18:35;4.07;;;3.67;;
19675;SDS011;39539;52.202;9.876;2022-08-07T07:21:07;4.03;;;3.40;;
19675;SDS011;39539;52.202;9.876;2022-08-07T07:23:38;3.38;;;3.17;;
19675;SDS011;39539;52.202;9.876;2022-08-07T07:26:04;3.83;;;3.35;;
19675;SDS011;39539;52.202;9.876;2022-08-07T07:28:38;4.00;;;2.95;;
19675;SDS011;39539;52.202;9.876;2022-08-07T07:33:58;3.13;;;2.92;;
19675;SDS011;39539;52.202;9.876;2022-08-07T07:36:28;3.65;;;3.20;;
19675;SDS011;39539;52.202;9.876;2022-08-07T07:38:56;3.92;;;3.42;;
19675;SDS011;39539;52.202;9.876;2022-08-07T07:41:24;3.42;;;2.85;;
19675;SDS011;39539;52.202;9.876;2022-08-07T07:43:51;4.97;;;3.30;;
19675;SDS011;39539;52.202;9.876;2022-08-07T07:46:19;3.25;;;2.97;;
19675;SDS011;39539;52.202;9.876;2022-08-07T07:48:47;3.03;;;2.80;;
19675;SDS011;39539;52.202;9.876;2022-08-07T07:51:15;3.75;;;3.45;;
19675;SDS011;39539;52.202;9.876;2022-08-07T07:53:43;3.53;;;3.03;;
19675;SDS011;39539;52.202;9.876;2022-08-07T07:56:11;3.00;;;2.65;;
19675;SDS011;39539;52.202;9.876;2022-08-07T07:58:38;4.38;;;2.70;;
19675;SDS011;39539;52.202;9.876;2022-08-07T08:01:05;3.15;;;2.85;;
19675;SDS011;39539;52.202;9.876;2022-08-07T08:03:32;2.88;;;2.58;;
19675;SDS011;39539;52.202;9.876;2022-08-07T08:06:01;3.10;;;2.80;;
19675;SDS011;39539;52.202;9.876;2022-08-07T08:08:27;5.63;;;2.50;;
19675;SDS011;39539;52.202;9.876;2022-08-07T08:10:56;3.40;;;2.42;;
19675;SDS011;39539;52.202;9.876;2022-08-07T08:13:24;2.90;;;2.60;;
19675;SDS011;39539;52.202;9.876;2022-08-07T08:15:51;3.08;;;2.88;;
19675;SDS011;39539;52.202;9.876;2022-08-07T08:18:17;2.45;;;2.25;;
19675;SDS011;39539;52.202;9.876;2022-08-07T08:20:44;3.03;;;2.60;;
19675;SDS011;39539;52.202;9.876;2022-08-07T08:23:11;2.60;;;2.40;;
19675;SDS011;39539;52.202;9.876;2022-08-07T08:25:58;2.45;;;2.25;;
19675;SDS011;39539;52.202;9.876;2022-08-07T08:28:45;2.65;;;2.40;;
19675;SDS011;39539;52.202;9.876;2022-08-07T08:31:15;2.38;;;2.17;;
19675;SDS011;39539;52.202;9.876;2022-08-07T08:33:44;2.05;;;1.70;;
19675;SDS011;39539;52.202;9.876;2022-08-07T08:36:11;2.05;;;1.85;;
19675;SDS011;39539;52.202;9.876;2022-08-07T08:38:39;2.97;;;2.30;;
19675;SDS011;39539;52.202;9.876;2022-08-07T08:41:24;2.20;;;2.00;;
19675;SDS011;39539;52.202;9.876;2022-08-07T08:54:29;2.30;;;1.80;;
19675;SDS011;39539;52.202;9.876;2022-08-07T08:57:03;1.85;;;1.67;;
19675;SDS011;39539;52.202;9.876;2022-08-07T08:59:36;6.22;;;1.88;;
19675;SDS011;39539;52.202;9.876;2022-08-07T09:02:26;1.83;;;1.73;;
19675;SDS011;39539;52.202;9.876;2022-08-07T09:08:24;1.73;;;1.30;;
19675;SDS011;39539;52.202;9.876;2022-08-07T09:25:15;0.70;;;0.60;;
19675;SDS011;39539;52.202;9.876;2022-08-07T09:27:56;1.85;;;1.05;;
19675;SDS011;39539;52.202;9.876;2022-08-07T09:30:24;1.10;;;0.80;;
19675;SDS011;39539;52.202;9.876;2022-08-07T09:33:01;1.27;;;1.05;;
19675;SDS011;39539;52.202;9.876;2022-08-07T09:35:50;2.40;;;0.88;;
19675;SDS011;39539;52.202;9.876;2022-08-07T09:38:33;1.23;;;1.15;;
19675;SDS011;39539;52.202;9.876;2022-08-07T09:44:05;1.08;;;0.80;;
19675;SDS011;39539;52.202;9.876;2022-08-07T09:53:08;1.30;;;0.77;;
19675;SDS011;39539;52.202;9.876;2022-08-07T09:55:45;1.13;;;0.55;;
19675;SDS011;39539;52.202;9.876;2022-08-07T10:09:20;1.75;;;0.55;;
19675;SDS011;39539;52.202;9.876;2022-08-07T10:12:09;1.02;;;0.60;;
19675;SDS011;39539;52.202;9.876;2022-08-07T10:20:35;1.13;;;0.60;;
19675;SDS011;39539;52.202;9.876;2022-08-07T10:23:24;0.68;;;0.68;;
19675;SDS011;39539;52.202;9.876;2022-08-07T10:31:59;0.82;;;0.70;;
19675;SDS011;39539;52.202;9.876;2022-08-07T10:37:38;1.35;;;0.70;;
19675;SDS011;39539;52.202;9.876;2022-08-07T10:40:19;1.27;;;0.63;;
19675;SDS011;39539;52.202;9.876;2022-08-07T10:45:42;1.33;;;0.68;;
19675;SDS011;39539;52.202;9.876;2022-08-07T10:48:33;0.98;;;0.75;;
19675;SDS011;39539;52.202;9.876;2022-08-07T10:51:08;1.10;;;1.00;;
19675;SDS011;39539;52.202;9.876;2022-08-07T10:53:42;1.33;;;1.00;;
19675;SDS011;39539;52.202;9.876;2022-08-07T11:11:23;0.80;;;0.80;;
19675;SDS011;39539;52.202;9.876;2022-08-07T11:16:38;0.77;;;0.77;;
19675;SDS011;39539;52.202;9.876;2022-08-07T11:24:23;1.08;;;0.90;;
19675;SDS011;39539;52.202;9.876;2022-08-07T11:30:05;1.80;;;0.80;;
19675;SDS011;39539;52.202;9.876;2022-08-07T11:32:35;5.63;;;1.20;;
19675;SDS011;39539;52.202;9.876;2022-08-07T11:35:03;0.88;;;0.88;;
19675;SDS011;39539;52.202;9.876;2022-08-07T11:37:36;1.05;;;0.95;;
19675;SDS011;39539;52.202;9.876;2022-08-07T11:43:08;1.23;;;0.80;;
19675;SDS011;39539;52.202;9.876;2022-08-07T11:49:01;0.70;;;0.70;;
19675;SDS011;39539;52.202;9.876;2022-08-07T11:51:58;1.48;;;0.68;;
19675;SDS011;39539;52.202;9.876;2022-08-07T12:05:24;0.65;;;0.65;;
19675;SDS011;39539;52.202;9.876;2022-08-07T12:13:01;1.27;;;0.77;;
19675;SDS011;39539;52.202;9.876;2022-08-07T12:15:31;0.93;;;0.70;;
19675;SDS011;39539;52.202;9.876;2022-08-07T12:20:34;1.25;;;0.70;;
19675;SDS011;39539;52.202;9.876;2022-08-07T12:26:11;0.77;;;0.70;;
19675;SDS011;39539;52.202;9.876;2022-08-07T12:28:50;1.35;;;0.63;;
19675;SDS011;39539;52.202;9.876;2022-08-07T12:31:27;0.70;;;0.70;;
19675;SDS011;39539;52.202;9.876;2022-08-07T12:34:04;2.30;;;0.80;;
19675;SDS011;39539;52.202;9.876;2022-08-07T12:36:30;1.13;;;0.68;;
19675;SDS011;39539;52.202;9.876;2022-08-07T12:38:57;1.85;;;0.70;;
19675;SDS011;39539;52.202;9.876;2022-08-07T12:41:25;0.80;;;0.80;;
19675;SDS011;39539;52.202;9.876;2022-08-07T12:43:52;0.73;;;0.68;;
19675;SDS011;39539;52.202;9.876;2022-08-07T12:51:36;0.88;;;0.60;;
19675;SDS011;39539;52.202;9.876;2022-08-07T12:54:14;0.60;;;0.60;;
19675;SDS011;39539;52.202;9.876;2022-08-07T12:56:45;1.00;;;0.60;;
19675;SDS011;39539;52.202;9.876;2022-08-07T12:59:19;0.68;;;0.68;;
19675;SDS011;39539;52.202;9.876;2022-08-07T13:10:29;0.88;;;0.80;;
19675;SDS011;39539;52.202;9.876;2022-08-07T13:15:55;0.93;;;0.50;;
19675;SDS011;39539;52.202;9.876;2022-08-07T13:18:30;2.95;;;0.70;;
19675;SDS011;39539;52.202;9.876;2022-08-07T13:26:45;0.95;;;0.50;;
19675;SDS011;39539;52.202;9.876;2022-08-07T13:32:19;1.23;;;0.60;;
19675;SDS011;39539;52.202;9.876;2022-08-07T13:34:59;0.60;;;0.60;;
19675;SDS011;39539;52.202;9.876;2022-08-07T13:42:51;0.60;;;0.60;;
19675;SDS011;39539;52.202;9.876;2022-08-07T13:45:20;2.05;;;0.52;;
19675;SDS011;39539;52.202;9.876;2022-08-07T13:47:50;0.65;;;0.60;;
19675;SDS011;39539;52.202;9.876;2022-08-07T13:50:16;0.60;;;0.60;;
19675;SDS011;39539;52.202;9.876;2022-08-07T13:52:46;0.55;;;0.55;;
19675;SDS011;39539;52.202;9.876;2022-08-07T13:55:16;0.68;;;0.50;;
19675;SDS011;39539;52.202;9.876;2022-08-07T13:57:44;0.55;;;0.50;;
19675;SDS011;39539;52.202;9.876;2022-08-07T14:00:14;1.67;;;0.70;;
19675;SDS011;39539;52.202;9.876;2022-08-07T14:02:41;2.22;;;0.60;;
19675;SDS011;39539;52.202;9.876;2022-08-07T14:05:09;1.95;;;0.70;;
19675;SDS011;39539;52.202;9.876;2022-08-07T14:07:40;0.98;;;0.55;;
19675;SDS011;39539;52.202;9.876;2022-08-07T14:10:08;0.70;;;0.63;;
19675;SDS011;39539;52.202;9.876;2022-08-07T14:12:45;0.40;;;0.40;;
19675;SDS011;39539;52.202;9.876;2022-08-07T14:15:18;0.60;;;0.60;;
19675;SDS011;39539;52.202;9.876;2022-08-07T14:17:49;1.02;;;0.68;;
19675;SDS011;39539;52.202;9.876;2022-08-07T14:20:19;0.50;;;0.50;;
19675;SDS011;39539;52.202;9.876;2022-08-07T14:23:10;0.60;;;0.50;;
19675;SDS011;39539;52.202;9.876;2022-08-07T14:25:54;1.30;;;0.80;;
19675;SDS011;39539;52.202;9.876;2022-08-07T14:28:44;0.77;;;0.63;;
19675;SDS011;39539;52.202;9.876;2022-08-07T14:31:11;0.60;;;0.60;;
19675;SDS011;39539;52.202;9.876;2022-08-07T14:33:38;0.70;;;0.60;;
19675;SDS011;39539;52.202;9.876;2022-08-07T14:36:04;1.15;;;0.60;;
19675;SDS011;39539;52.202;9.876;2022-08-07T14:38:31;0.85;;;0.70;;
19675;SDS011;39539;52.202;9.876;2022-08-07T14:41:02;0.80;;;0.50;;
19675;SDS011;39539;52.202;9.876;2022-08-07T14:43:32;0.90;;;0.60;;
19675;SDS011;39539;52.202;9.876;2022-08-07T14:46:02;0.93;;;0.65;;
19675;SDS011;39539;52.202;9.876;2022-08-07T14:48:32;0.50;;;0.50;;
19675;SDS011;39539;52.202;9.876;2022-08-07T14:51:00;0.70;;;0.70;;
19675;SDS011;39539;52.202;9.876;2022-08-07T14:53:36;0.85;;;0.50;;
19675;SDS011;39539;52.202;9.876;2022-08-07T14:56:07;0.70;;;0.40;;
19675;SDS011;39539;52.202;9.876;2022-08-07T14:58:38;0.68;;;0.50;;
19675;SDS011;39539;52.202;9.876;2022-08-07T15:01:05;0.50;;;0.50;;
19675;SDS011;39539;52.202;9.876;2022-08-07T15:03:33;0.77;;;0.57;;
19675;SDS011;39539;52.202;9.876;2022-08-07T15:05:59;0.82;;;0.63;;
19675;SDS011;39539;52.202;9.876;2022-08-07T15:08:36;1.40;;;0.70;;
19675;SDS011;39539;52.202;9.876;2022-08-07T15:11:05;0.98;;;0.60;;
19675;SDS011;39539;52.202;9.876;2022-08-07T15:13:36;0.98;;;0.80;;
19675;SDS011;39539;52.202;9.876;2022-08-07T15:16:18;0.82;;;0.63;;
19675;SDS011;39539;52.202;9.876;2022-08-07T15:18:49;1.05;;;0.77;;
19675;SDS011;39539;52.202;9.876;2022-08-07T15:21:21;0.65;;;0.60;;
19675;SDS011;39539;52.202;9.876;2022-08-07T15:23:52;0.57;;;0.57;;
19675;SDS011;39539;52.202;9.876;2022-08-07T15:26:22;0.80;;;0.57;;
19675;SDS011;39539;52.202;9.876;2022-08-07T15:28:57;1.95;;;0.60;;
19675;SDS011;39539;52.202;9.876;2022-08-07T15:31:24;1.42;;;0.60;;
19675;SDS011;39539;52.202;9.876;2022-08-07T15:33:55;0.60;;;0.60;;
19675;SDS011;39539;52.202;9.876;2022-08-07T15:36:24;0.60;;;0.60;;
19675;SDS011;39539;52.202;9.876;2022-08-07T15:38:50;0.50;;;0.50;;
19675;SDS011;39539;52.202;9.876;2022-08-07T15:41:20;0.50;;;0.50;;
19675;SDS011;39539;52.202;9.876;2022-08-07T15:44:04;1.20;;;0.65;;
19675;SDS011;39539;52.202;9.876;2022-08-07T15:46:34;0.70;;;0.70;;
19675;SDS011;39539;52.202;9.876;2022-08-07T15:49:02;0.55;;;0.50;;
19675;SDS011;39539;52.202;9.876;2022-08-07T15:51:31;1.88;;;0.70;;
19675;SDS011;39539;52.202;9.876;2022-08-07T15:53:58;1.08;;;0.80;;
19675;SDS011;39539;52.202;9.876;2022-08-07T15:56:31;0.80;;;0.70;;
19675;SDS011;39539;52.202;9.876;2022-08-07T15:59:00;0.82;;;0.70;;
19675;SDS011;39539;52.202;9.876;2022-08-07T16:01:30;1.25;;;0.73;;
19675;SDS011;39539;52.202;9.876;2022-08-07T16:03:59;0.70;;;0.70;;
19675;SDS011;39539;52.202;9.876;2022-08-07T16:06:30;0.75;;;0.70;;
19675;SDS011;39539;52.202;9.876;2022-08-07T16:09:00;0.80;;;0.80;;
19675;SDS011;39539;52.202;9.876;2022-08-07T16:14:13;0.80;;;0.80;;
19675;SDS011;39539;52.202;9.876;2022-08-07T16:16:48;0.90;;;0.90;;
19675;SDS011;39539;52.202;9.876;2022-08-07T16:22:10;1.00;;;0.82;;
19675;SDS011;39539;52.202;9.876;2022-08-07T16:33:37;1.05;;;0.75;;
19675;SDS011;39539;52.202;9.876;2022-08-07T16:36:17;0.90;;;0.90;;
19675;SDS011;39539;52.202;9.876;2022-08-07T16:44:51;0.85;;;0.85;;
19675;SDS011;39539;52.202;9.876;2022-08-07T16:47:45;2.05;;;0.90;;
19675;SDS011;39539;52.202;9.876;2022-08-07T16:50:23;1.83;;;0.90;;
19675;SDS011;39539;52.202;9.876;2022-08-07T16:55:31;0.85;;;0.85;;
19675;SDS011;39539;52.202;9.876;2022-08-07T16:58:04;1.08;;;0.90;;
19675;SDS011;39539;52.202;9.876;2022-08-07T17:00:43;1.52;;;0.90;;
19675;SDS011;39539;52.202;9.876;2022-08-07T17:03:33;1.38;;;1.00;;
19675;SDS011;39539;52.202;9.876;2022-08-07T17:08:59;1.10;;;1.00;;
19675;SDS011;39539;52.202;9.876;2022-08-07T17:11:54;1.20;;;1.10;;
19675;SDS011;39539;52.202;9.876;2022-08-07T17:17:32;1.05;;;1.05;;
19675;SDS011;39539;52.202;9.876;2022-08-07T17:20:06;1.13;;;1.02;;
19675;SDS011;39539;52.202;9.876;2022-08-07T17:22:44;0.90;;;0.90;;
19675;SDS011;39539;52.202;9.876;2022-08-07T17:25:19;1.88;;;1.10;;
19675;SDS011;39539;52.202;9.876;2022-08-07T17:27:53;0.90;;;0.90;;
19675;SDS011;39539;52.202;9.876;2022-08-07T17:30:22;1.30;;;1.20;;
19675;SDS011;39539;52.202;9.876;2022-08-07T17:40:48;1.20;;;1.10;;
19675;SDS011;39539;52.202;9.876;2022-08-07T17:43:31;1.27;;;1.17;;
19675;SDS011;39539;52.202;9.876;2022-08-07T17:46:18;1.52;;;1.20;;
19675;SDS011;39539;52.202;9.876;2022-08-07T17:49:03;1.52;;;0.98;;
19675;SDS011;39539;52.202;9.876;2022-08-07T17:51:38;1.30;;;1.20;;
19675;SDS011;39539;52.202;9.876;2022-08-07T17:54:21;1.70;;;1.20;;
19675;SDS011;39539;52.202;9.876;2022-08-07T17:57:13;1.52;;;1.35;;
19675;SDS011;39539;52.202;9.876;2022-08-07T17:59:46;1.40;;;1.30;;
19675;SDS011;39539;52.202;9.876;2022-08-07T18:02:16;1.20;;;1.10;;
19675;SDS011;39539;52.202;9.876;2022-08-07T18:05:03;1.35;;;1.10;;
19675;SDS011;39539;52.202;9.876;2022-08-07T18:10:42;2.28;;;1.00;;
19675;SDS011;39539;52.202;9.876;2022-08-07T18:13:19;1.20;;;1.10;;
19675;SDS011;39539;52.202;9.876;2022-08-07T18:18:47;1.20;;;1.10;;
19675;SDS011;39539;52.202;9.876;2022-08-07T18:21:23;1.60;;;1.00;;
19675;SDS011;39539;52.202;9.876;2022-08-07T18:29:23;2.75;;;1.13;;
19675;SDS011;39539;52.202;9.876;2022-08-07T18:32:06;1.25;;;1.20;;
19675;SDS011;39539;52.202;9.876;2022-08-07T18:43:10;2.00;;;1.30;;
19675;SDS011;39539;52.202;9.876;2022-08-07T18:46:00;1.20;;;1.10;;